Judith Gap, Montana
Current Conditions -  °F | °C
As of 9:09 AM on Wednesday 26 Nov 2014 (Local Time) from KLWT Reporting Station
Light Snow Light Snow  
Wind Chill: 22°   Ceiling: 2400
Heat Index: 28°   Visibility: 1.5mi
Dew Point: 24°   Wind: 6mph
Humidity: 85%   Direction: 110°ESE
Pressure: 30.14"   Gusts: NA
Location:  46.68°N, 109.75°W
Report Text: KLWT 261609Z AUTO 11005KT 1 1/2SM -SN BR OVC024 M02/M04 A3014 RMK AO2 P0000 T10221044
Loading
Personal Weather Stations






























Interactive Weather Map New forecast layout! Learn more

10-Day Weather Forecast

Advertisements
Track Severe Weather on mobile